sensor_id;sensor_type;location;lat;lon;timestamp;P1;durP1;ratioP1;P2;durP2;ratioP2
8584;SDS011;7180;52.742;11.420;2024-03-06T00:01:37;8.93;;;8.30;;
8584;SDS011;7180;52.742;11.420;2024-03-06T00:04:03;8.03;;;7.60;;
8584;SDS011;7180;52.742;11.420;2024-03-06T00:06:29;8.83;;;8.07;;
8584;SDS011;7180;52.742;11.420;2024-03-06T00:08:55;7.97;;;7.47;;
8584;SDS011;7180;52.742;11.420;2024-03-06T00:11:20;8.70;;;8.20;;
8584;SDS011;7180;52.742;11.420;2024-03-06T00:13:46;8.83;;;8.27;;
8584;SDS011;7180;52.742;11.420;2024-03-06T00:16:12;8.93;;;8.23;;
8584;SDS011;7180;52.742;11.420;2024-03-06T00:18:38;9.37;;;8.77;;
8584;SDS011;7180;52.742;11.420;2024-03-06T00:21:03;9.10;;;8.57;;
8584;SDS011;7180;52.742;11.420;2024-03-06T00:23:29;9.73;;;9.00;;
8584;SDS011;7180;52.742;11.420;2024-03-06T00:25:54;8.80;;;8.30;;
8584;SDS011;7180;52.742;11.420;2024-03-06T00:28:19;9.13;;;8.43;;
8584;SDS011;7180;52.742;11.420;2024-03-06T00:30:44;9.20;;;8.57;;
8584;SDS011;7180;52.742;11.420;2024-03-06T00:33:10;9.07;;;8.47;;
8584;SDS011;7180;52.742;11.420;2024-03-06T00:35:35;9.33;;;8.80;;
8584;SDS011;7180;52.742;11.420;2024-03-06T00:38:00;8.80;;;8.30;;
8584;SDS011;7180;52.742;11.420;2024-03-06T00:40:27;9.30;;;8.70;;
8584;SDS011;7180;52.742;11.420;2024-03-06T00:42:55;8.60;;;8.10;;
8584;SDS011;7180;52.742;11.420;2024-03-06T00:45:21;8.70;;;8.30;;
8584;SDS011;7180;52.742;11.420;2024-03-06T00:47:47;9.20;;;8.50;;
8584;SDS011;7180;52.742;11.420;2024-03-06T00:50:12;9.50;;;8.90;;
8584;SDS011;7180;52.742;11.420;2024-03-06T00:52:37;8.93;;;8.40;;
8584;SDS011;7180;52.742;11.420;2024-03-06T00:55:03;8.97;;;8.40;;
8584;SDS011;7180;52.742;11.420;2024-03-06T00:57:30;9.03;;;8.43;;
8584;SDS011;7180;52.742;11.420;2024-03-06T00:59:56;8.90;;;8.33;;
8584;SDS011;7180;52.742;11.420;2024-03-06T01:02:21;8.13;;;7.70;;
8584;SDS011;7180;52.742;11.420;2024-03-06T01:04:46;9.40;;;8.80;;
8584;SDS011;7180;52.742;11.420;2024-03-06T01:07:12;8.60;;;8.10;;
8584;SDS011;7180;52.742;11.420;2024-03-06T01:09:37;9.57;;;8.90;;
8584;SDS011;7180;52.742;11.420;2024-03-06T01:12:02;8.73;;;8.23;;
8584;SDS011;7180;52.742;11.420;2024-03-06T01:14:27;8.80;;;8.30;;
8584;SDS011;7180;52.742;11.420;2024-03-06T01:16:53;9.07;;;8.50;;
8584;SDS011;7180;52.742;11.420;2024-03-06T01:19:18;8.87;;;8.27;;
8584;SDS011;7180;52.742;11.420;2024-03-06T01:21:43;9.00;;;8.40;;
8584;SDS011;7180;52.742;11.420;2024-03-06T01:24:08;8.73;;;8.17;;
8584;SDS011;7180;52.742;11.420;2024-03-06T01:26:34;9.00;;;8.40;;
8584;SDS011;7180;52.742;11.420;2024-03-06T01:28:59;9.03;;;8.43;;
8584;SDS011;7180;52.742;11.420;2024-03-06T01:31:24;9.37;;;8.63;;
8584;SDS011;7180;52.742;11.420;2024-03-06T01:33:50;9.17;;;8.50;;
8584;SDS011;7180;52.742;11.420;2024-03-06T01:36:15;8.93;;;8.33;;
8584;SDS011;7180;52.742;11.420;2024-03-06T01:38:40;9.47;;;8.73;;
8584;SDS011;7180;52.742;11.420;2024-03-06T01:41:06;9.10;;;8.50;;
8584;SDS011;7180;52.742;11.420;2024-03-06T01:43:36;9.47;;;8.83;;
8584;SDS011;7180;52.742;11.420;2024-03-06T01:46:03;9.20;;;8.60;;
8584;SDS011;7180;52.742;11.420;2024-03-06T01:48:28;10.10;;;9.40;;
8584;SDS011;7180;52.742;11.420;2024-03-06T01:50:56;8.90;;;8.40;;
8584;SDS011;7180;52.742;11.420;2024-03-06T01:53:25;9.30;;;8.80;;
8584;SDS011;7180;52.742;11.420;2024-03-06T01:55:52;9.23;;;8.63;;
8584;SDS011;7180;52.742;11.420;2024-03-06T01:58:18;9.20;;;8.70;;
8584;SDS011;7180;52.742;11.420;2024-03-06T02:00:46;9.53;;;8.83;;
8584;SDS011;7180;52.742;11.420;2024-03-06T02:03:11;9.50;;;8.80;;
8584;SDS011;7180;52.742;11.420;2024-03-06T02:05:37;8.97;;;8.37;;
8584;SDS011;7180;52.742;11.420;2024-03-06T02:08:02;9.50;;;8.90;;
8584;SDS011;7180;52.742;11.420;2024-03-06T02:10:29;9.17;;;8.57;;
8584;SDS011;7180;52.742;11.420;2024-03-06T02:12:55;8.90;;;8.40;;
8584;SDS011;7180;52.742;11.420;2024-03-06T02:15:20;10.00;;;9.20;;
8584;SDS011;7180;52.742;11.420;2024-03-06T02:17:46;9.73;;;9.03;;
8584;SDS011;7180;52.742;11.420;2024-03-06T02:20:11;9.00;;;8.50;;
8584;SDS011;7180;52.742;11.420;2024-03-06T02:22:39;9.27;;;8.67;;
8584;SDS011;7180;52.742;11.420;2024-03-06T02:25:05;9.43;;;8.60;;
8584;SDS011;7180;52.742;11.420;2024-03-06T02:27:31;8.90;;;8.40;;
8584;SDS011;7180;52.742;11.420;2024-03-06T02:29:57;9.00;;;8.40;;
8584;SDS011;7180;52.742;11.420;2024-03-06T02:32:22;8.83;;;8.33;;
8584;SDS011;7180;52.742;11.420;2024-03-06T02:34:49;9.00;;;8.50;;
8584;SDS011;7180;52.742;11.420;2024-03-06T02:37:14;8.30;;;7.80;;
8584;SDS011;7180;52.742;11.420;2024-03-06T02:39:40;8.90;;;8.40;;
8584;SDS011;7180;52.742;11.420;2024-03-06T02:42:05;8.60;;;8.10;;
8584;SDS011;7180;52.742;11.420;2024-03-06T02:44:31;8.83;;;8.33;;
8584;SDS011;7180;52.742;11.420;2024-03-06T02:46:57;8.70;;;8.20;;
8584;SDS011;7180;52.742;11.420;2024-03-06T02:49:22;9.33;;;8.60;;
8584;SDS011;7180;52.742;11.420;2024-03-06T02:51:48;8.60;;;8.10;;
8584;SDS011;7180;52.742;11.420;2024-03-06T02:54:13;9.20;;;8.53;;
8584;SDS011;7180;52.742;11.420;2024-03-06T02:56:38;9.53;;;8.83;;
8584;SDS011;7180;52.742;11.420;2024-03-06T02:59:03;8.63;;;8.13;;
8584;SDS011;7180;52.742;11.420;2024-03-06T03:01:29;8.73;;;8.23;;
8584;SDS011;7180;52.742;11.420;2024-03-06T03:03:55;9.20;;;8.50;;
8584;SDS011;7180;52.742;11.420;2024-03-06T03:06:20;8.73;;;8.13;;
8584;SDS011;7180;52.742;11.420;2024-03-06T03:08:46;8.53;;;8.03;;
8584;SDS011;7180;52.742;11.420;2024-03-06T03:11:12;8.67;;;8.13;;
8584;SDS011;7180;52.742;11.420;2024-03-06T03:13:37;9.20;;;8.60;;
8584;SDS011;7180;52.742;11.420;2024-03-06T03:16:03;9.10;;;8.40;;
8584;SDS011;7180;52.742;11.420;2024-03-06T03:18:29;8.67;;;7.97;;
8584;SDS011;7180;52.742;11.420;2024-03-06T03:20:54;8.07;;;7.57;;
8584;SDS011;7180;52.742;11.420;2024-03-06T03:23:19;9.03;;;8.37;;
8584;SDS011;7180;52.742;11.420;2024-03-06T03:25:47;8.63;;;8.13;;
8584;SDS011;7180;52.742;11.420;2024-03-06T03:28:15;9.70;;;9.10;;
8584;SDS011;7180;52.742;11.420;2024-03-06T03:30:42;9.03;;;8.43;;
8584;SDS011;7180;52.742;11.420;2024-03-06T03:33:09;9.00;;;8.43;;
8584;SDS011;7180;52.742;11.420;2024-03-06T03:35:34;8.83;;;8.33;;
8584;SDS011;7180;52.742;11.420;2024-03-06T03:37:59;9.30;;;8.70;;
8584;SDS011;7180;52.742;11.420;2024-03-06T03:40:25;8.60;;;8.10;;
8584;SDS011;7180;52.742;11.420;2024-03-06T03:42:50;8.67;;;8.13;;
8584;SDS011;7180;52.742;11.420;2024-03-06T03:45:15;9.50;;;8.90;;
8584;SDS011;7180;52.742;11.420;2024-03-06T03:47:40;9.30;;;8.50;;
8584;SDS011;7180;52.742;11.420;2024-03-06T03:50:08;9.10;;;8.50;;
8584;SDS011;7180;52.742;11.420;2024-03-06T03:52:34;9.40;;;8.80;;
8584;SDS011;7180;52.742;11.420;2024-03-06T03:54:59;9.43;;;8.83;;
8584;SDS011;7180;52.742;11.420;2024-03-06T03:57:24;9.03;;;8.47;;
8584;SDS011;7180;52.742;11.420;2024-03-06T03:59:50;9.50;;;8.70;;
8584;SDS011;7180;52.742;11.420;2024-03-06T04:02:16;9.37;;;8.53;;
8584;SDS011;7180;52.742;11.420;2024-03-06T04:04:41;8.40;;;7.97;;
8584;SDS011;7180;52.742;11.420;2024-03-06T04:07:07;8.53;;;8.03;;
8584;SDS011;7180;52.742;11.420;2024-03-06T04:09:32;8.80;;;8.20;;
8584;SDS011;7180;52.742;11.420;2024-03-06T04:12:01;8.50;;;8.00;;
8584;SDS011;7180;52.742;11.420;2024-03-06T04:14:26;9.03;;;8.33;;
8584;SDS011;7180;52.742;11.420;2024-03-06T04:16:52;8.70;;;8.20;;
8584;SDS011;7180;52.742;11.420;2024-03-06T04:19:17;8.50;;;7.87;;
8584;SDS011;7180;52.742;11.420;2024-03-06T04:21:43;8.53;;;8.13;;
8584;SDS011;7180;52.742;11.420;2024-03-06T04:24:09;8.70;;;8.20;;
8584;SDS011;7180;52.742;11.420;2024-03-06T04:26:34;8.53;;;7.93;;
8584;SDS011;7180;52.742;11.420;2024-03-06T04:28:59;9.03;;;8.50;;
8584;SDS011;7180;52.742;11.420;2024-03-06T04:31:25;8.70;;;8.20;;
8584;SDS011;7180;52.742;11.420;2024-03-06T04:33:50;8.47;;;8.03;;
8584;SDS011;7180;52.742;11.420;2024-03-06T04:36:16;9.17;;;8.57;;
8584;SDS011;7180;52.742;11.420;2024-03-06T04:38:41;7.70;;;7.30;;
8584;SDS011;7180;52.742;11.420;2024-03-06T04:41:07;9.10;;;8.50;;
8584;SDS011;7180;52.742;11.420;2024-03-06T04:43:32;9.30;;;8.70;;
8584;SDS011;7180;52.742;11.420;2024-03-06T04:45:57;8.57;;;8.07;;
8584;SDS011;7180;52.742;11.420;2024-03-06T04:48:23;9.07;;;8.47;;
8584;SDS011;7180;52.742;11.420;2024-03-06T04:50:48;9.00;;;8.50;;
8584;SDS011;7180;52.742;11.420;2024-03-06T04:53:14;8.37;;;7.97;;
8584;SDS011;7180;52.742;11.420;2024-03-06T04:55:39;9.63;;;8.97;;
8584;SDS011;7180;52.742;11.420;2024-03-06T04:58:05;9.53;;;8.97;;
8584;SDS011;7180;52.742;11.420;2024-03-06T05:00:31;9.00;;;8.30;;
8584;SDS011;7180;52.742;11.420;2024-03-06T05:02:56;9.53;;;8.90;;
8584;SDS011;7180;52.742;11.420;2024-03-06T05:05:22;9.37;;;8.73;;
8584;SDS011;7180;52.742;11.420;2024-03-06T05:07:47;9.77;;;9.07;;
8584;SDS011;7180;52.742;11.420;2024-03-06T05:10:13;9.40;;;8.70;;
8584;SDS011;7180;52.742;11.420;2024-03-06T05:12:40;9.13;;;8.50;;
8584;SDS011;7180;52.742;11.420;2024-03-06T05:15:05;9.30;;;8.67;;
8584;SDS011;7180;52.742;11.420;2024-03-06T05:17:31;9.00;;;8.40;;
8584;SDS011;7180;52.742;11.420;2024-03-06T05:19:57;8.70;;;8.10;;
8584;SDS011;7180;52.742;11.420;2024-03-06T05:22:22;8.13;;;7.63;;
8584;SDS011;7180;52.742;11.420;2024-03-06T05:24:48;8.90;;;8.30;;
8584;SDS011;7180;52.742;11.420;2024-03-06T05:27:13;8.50;;;8.00;;
8584;SDS011;7180;52.742;11.420;2024-03-06T05:29:41;8.87;;;8.17;;
8584;SDS011;7180;52.742;11.420;2024-03-06T05:32:07;8.43;;;7.93;;
8584;SDS011;7180;52.742;11.420;2024-03-06T05:34:32;9.20;;;8.40;;
8584;SDS011;7180;52.742;11.420;2024-03-06T05:36:58;9.03;;;8.43;;
8584;SDS011;7180;52.742;11.420;2024-03-06T05:39:24;8.67;;;8.20;;
8584;SDS011;7180;52.742;11.420;2024-03-06T05:41:49;8.57;;;8.07;;
8584;SDS011;7180;52.742;11.420;2024-03-06T05:44:14;8.60;;;8.10;;
8584;SDS011;7180;52.742;11.420;2024-03-06T05:46:40;8.00;;;7.57;;
8584;SDS011;7180;52.742;11.420;2024-03-06T05:49:05;9.30;;;8.73;;
8584;SDS011;7180;52.742;11.420;2024-03-06T05:51:30;9.10;;;8.60;;
8584;SDS011;7180;52.742;11.420;2024-03-06T05:53:56;9.10;;;8.50;;
8584;SDS011;7180;52.742;11.420;2024-03-06T05:56:21;8.83;;;8.33;;
8584;SDS011;7180;52.742;11.420;2024-03-06T05:58:46;9.87;;;9.27;;
8584;SDS011;7180;52.742;11.420;2024-03-06T06:01:12;9.03;;;8.43;;
8584;SDS011;7180;52.742;11.420;2024-03-06T06:03:43;9.03;;;8.53;;
8584;SDS011;7180;52.742;11.420;2024-03-06T06:06:09;9.17;;;8.63;;
8584;SDS011;7180;52.742;11.420;2024-03-06T06:08:34;9.60;;;9.07;;
8584;SDS011;7180;52.742;11.420;2024-03-06T06:11:00;9.57;;;8.97;;
8584;SDS011;7180;52.742;11.420;2024-03-06T06:13:27;9.53;;;9.00;;
8584;SDS011;7180;52.742;11.420;2024-03-06T06:15:53;10.13;;;9.43;;
8584;SDS011;7180;52.742;11.420;2024-03-06T06:18:18;9.57;;;8.97;;
8584;SDS011;7180;52.742;11.420;2024-03-06T06:20:43;9.87;;;9.30;;
8584;SDS011;7180;52.742;11.420;2024-03-06T06:23:08;10.10;;;9.50;;
8584;SDS011;7180;52.742;11.420;2024-03-06T06:25:34;10.87;;;10.17;;
8584;SDS011;7180;52.742;11.420;2024-03-06T06:28:00;11.10;;;10.20;;
8584;SDS011;7180;52.742;11.420;2024-03-06T06:30:25;9.77;;;9.17;;
8584;SDS011;7180;52.742;11.420;2024-03-06T06:32:50;9.37;;;8.87;;
8584;SDS011;7180;52.742;11.420;2024-03-06T06:35:16;9.83;;;8.93;;
8584;SDS011;7180;52.742;11.420;2024-03-06T06:37:41;10.10;;;9.40;;
8584;SDS011;7180;52.742;11.420;2024-03-06T06:40:07;9.37;;;8.77;;
8584;SDS011;7180;52.742;11.420;2024-03-06T06:42:33;9.77;;;8.97;;
8584;SDS011;7180;52.742;11.420;2024-03-06T06:45:01;9.10;;;8.60;;
8584;SDS011;7180;52.742;11.420;2024-03-06T06:47:27;8.53;;;8.03;;
8584;SDS011;7180;52.742;11.420;2024-03-06T06:49:53;8.47;;;7.97;;
8584;SDS011;7180;52.742;11.420;2024-03-06T06:52:18;9.07;;;8.47;;
8584;SDS011;7180;52.742;11.420;2024-03-06T06:54:44;8.83;;;8.33;;
8584;SDS011;7180;52.742;11.420;2024-03-06T06:57:09;9.20;;;8.70;;
8584;SDS011;7180;52.742;11.420;2024-03-06T06:59:35;8.37;;;7.87;;
8584;SDS011;7180;52.742;11.420;2024-03-06T07:02:01;8.13;;;7.53;;
8584;SDS011;7180;52.742;11.420;2024-03-06T07:04:27;9.37;;;8.77;;
8584;SDS011;7180;52.742;11.420;2024-03-06T07:06:52;8.93;;;8.37;;
8584;SDS011;7180;52.742;11.420;2024-03-06T07:09:18;8.90;;;8.30;;
8584;SDS011;7180;52.742;11.420;2024-03-06T07:11:44;10.27;;;9.47;;
8584;SDS011;7180;52.742;11.420;2024-03-06T07:14:09;10.27;;;9.50;;
8584;SDS011;7180;52.742;11.420;2024-03-06T07:16:41;10.20;;;9.53;;
8584;SDS011;7180;52.742;11.420;2024-03-06T07:19:07;9.70;;;9.10;;
8584;SDS011;7180;52.742;11.420;2024-03-06T07:21:32;9.70;;;9.07;;
8584;SDS011;7180;52.742;11.420;2024-03-06T07:23:58;10.00;;;9.27;;
8584;SDS011;7180;52.742;11.420;2024-03-06T07:26:23;9.13;;;8.63;;
8584;SDS011;7180;52.742;11.420;2024-03-06T07:28:48;9.50;;;8.97;;
8584;SDS011;7180;52.742;11.420;2024-03-06T07:31:14;10.37;;;9.50;;
8584;SDS011;7180;52.742;11.420;2024-03-06T07:33:39;9.60;;;8.90;;
8584;SDS011;7180;52.742;11.420;2024-03-06T07:36:04;10.17;;;9.47;;
8584;SDS011;7180;52.742;11.420;2024-03-06T07:38:30;11.47;;;10.37;;
8584;SDS011;7180;52.742;11.420;2024-03-06T07:40:55;11.30;;;10.40;;
8584;SDS011;7180;52.742;11.420;2024-03-06T07:43:20;10.97;;;10.17;;
8584;SDS011;7180;52.742;11.420;2024-03-06T07:45:46;11.70;;;10.67;;
8584;SDS011;7180;52.742;11.420;2024-03-06T07:48:12;10.90;;;10.00;;
8584;SDS011;7180;52.742;11.420;2024-03-06T07:50:38;10.67;;;9.83;;
8584;SDS011;7180;52.742;11.420;2024-03-06T07:53:03;11.20;;;10.37;;
8584;SDS011;7180;52.742;11.420;2024-03-06T07:55:29;11.57;;;10.57;;
8584;SDS011;7180;52.742;11.420;2024-03-06T07:57:54;10.83;;;9.93;;
8584;SDS011;7180;52.742;11.420;2024-03-06T08:00:19;11.60;;;10.60;;
8584;SDS011;7180;52.742;11.420;2024-03-06T08:02:45;10.83;;;10.10;;
8584;SDS011;7180;52.742;11.420;2024-03-06T08:05:17;10.90;;;10.10;;
8584;SDS011;7180;52.742;11.420;2024-03-06T08:07:43;11.40;;;10.60;;
8584;SDS011;7180;52.742;11.420;2024-03-06T08:10:10;11.33;;;10.43;;
8584;SDS011;7180;52.742;11.420;2024-03-06T08:12:41;11.43;;;10.67;;
8584;SDS011;7180;52.742;11.420;2024-03-06T08:15:09;12.43;;;11.43;;
8584;SDS011;7180;52.742;11.420;2024-03-06T08:17:36;11.57;;;10.73;;
8584;SDS011;7180;52.742;11.420;2024-03-06T08:20:03;12.30;;;11.20;;
8584;SDS011;7180;52.742;11.420;2024-03-06T08:22:32;11.50;;;10.70;;
8584;SDS011;7180;52.742;11.420;2024-03-06T08:25:03;12.37;;;11.43;;
8584;SDS011;7180;52.742;11.420;2024-03-06T08:27:29;12.23;;;11.20;;
8584;SDS011;7180;52.742;11.420;2024-03-06T08:29:54;11.67;;;10.77;;
8584;SDS011;7180;52.742;11.420;2024-03-06T08:32:20;11.87;;;10.83;;
8584;SDS011;7180;52.742;11.420;2024-03-06T08:34:45;11.53;;;10.63;;
8584;SDS011;7180;52.742;11.420;2024-03-06T08:37:10;12.00;;;11.00;;
8584;SDS011;7180;52.742;11.420;2024-03-06T08:39:35;11.80;;;10.70;;
8584;SDS011;7180;52.742;11.420;2024-03-06T08:42:01;12.27;;;11.37;;
8584;SDS011;7180;52.742;11.420;2024-03-06T08:44:27;11.63;;;10.83;;
8584;SDS011;7180;52.742;11.420;2024-03-06T08:46:53;11.93;;;10.83;;
8584;SDS011;7180;52.742;11.420;2024-03-06T08:49:18;11.57;;;10.63;;
8584;SDS011;7180;52.742;11.420;2024-03-06T08:51:43;12.07;;;11.07;;
8584;SDS011;7180;52.742;11.420;2024-03-06T08:54:09;12.67;;;11.57;;
8584;SDS011;7180;52.742;11.420;2024-03-06T08:56:35;12.20;;;11.20;;
8584;SDS011;7180;52.742;11.420;2024-03-06T08:59:01;11.40;;;10.60;;
8584;SDS011;7180;52.742;11.420;2024-03-06T09:01:30;12.10;;;11.10;;
8584;SDS011;7180;52.742;11.420;2024-03-06T09:03:55;12.37;;;11.13;;
8584;SDS011;7180;52.742;11.420;2024-03-06T09:06:22;13.43;;;11.13;;
8584;SDS011;7180;52.742;11.420;2024-03-06T09:08:47;12.00;;;11.10;;
8584;SDS011;7180;52.742;11.420;2024-03-06T09:11:13;11.90;;;11.00;;
8584;SDS011;7180;52.742;11.420;2024-03-06T09:13:38;11.70;;;10.80;;
8584;SDS011;7180;52.742;11.420;2024-03-06T09:16:04;12.20;;;11.20;;
8584;SDS011;7180;52.742;11.420;2024-03-06T09:18:30;12.47;;;11.27;;
8584;SDS011;7180;52.742;11.420;2024-03-06T09:20:55;12.80;;;11.70;;
8584;SDS011;7180;52.742;11.420;2024-03-06T09:23:21;13.00;;;11.80;;
8584;SDS011;7180;52.742;11.420;2024-03-06T09:25:46;12.93;;;11.73;;
8584;SDS011;7180;52.742;11.420;2024-03-06T09:28:13;12.83;;;11.60;;
8584;SDS011;7180;52.742;11.420;2024-03-06T09:30:38;12.67;;;11.53;;
8584;SDS011;7180;52.742;11.420;2024-03-06T09:33:03;13.53;;;12.37;;
8584;SDS011;7180;52.742;11.420;2024-03-06T09:35:29;12.97;;;11.77;;
8584;SDS011;7180;52.742;11.420;2024-03-06T09:37:54;13.00;;;11.90;;
8584;SDS011;7180;52.742;11.420;2024-03-06T09:40:22;12.97;;;11.87;;
8584;SDS011;7180;52.742;11.420;2024-03-06T09:42:49;14.33;;;12.93;;
8584;SDS011;7180;52.742;11.420;2024-03-06T09:45:15;15.07;;;13.23;;
8584;SDS011;7180;52.742;11.420;2024-03-06T09:47:41;13.37;;;12.17;;
8584;SDS011;7180;52.742;11.420;2024-03-06T09:50:08;13.43;;;12.17;;
8584;SDS011;7180;52.742;11.420;2024-03-06T09:52:34;13.80;;;12.50;;
8584;SDS011;7180;52.742;11.420;2024-03-06T09:55:01;14.17;;;12.97;;
8584;SDS011;7180;52.742;11.420;2024-03-06T09:57:28;13.23;;;11.97;;
8584;SDS011;7180;52.742;11.420;2024-03-06T09:59:54;13.30;;;12.13;;
8584;SDS011;7180;52.742;11.420;2024-03-06T10:02:31;14.10;;;12.50;;
8584;SDS011;7180;52.742;11.420;2024-03-06T10:05:02;13.27;;;12.00;;
8584;SDS011;7180;52.742;11.420;2024-03-06T10:07:28;12.93;;;11.83;;
8584;SDS011;7180;52.742;11.420;2024-03-06T10:09:53;14.03;;;12.73;;
8584;SDS011;7180;52.742;11.420;2024-03-06T10:12:18;13.30;;;12.20;;
8584;SDS011;7180;52.742;11.420;2024-03-06T10:14:51;12.83;;;11.73;;
8584;SDS011;7180;52.742;11.420;2024-03-06T10:17:20;13.23;;;12.03;;
8584;SDS011;7180;52.742;11.420;2024-03-06T10:19:51;14.23;;;12.93;;
8584;SDS011;7180;52.742;11.420;2024-03-06T10:22:17;13.87;;;12.23;;
8584;SDS011;7180;52.742;11.420;2024-03-06T10:24:43;13.67;;;12.40;;
8584;SDS011;7180;52.742;11.420;2024-03-06T10:27:13;13.43;;;12.23;;
8584;SDS011;7180;52.742;11.420;2024-03-06T10:29:40;14.37;;;13.00;;
8584;SDS011;7180;52.742;11.420;2024-03-06T10:32:05;13.03;;;11.93;;
8584;SDS011;7180;52.742;11.420;2024-03-06T10:34:31;13.03;;;11.73;;
8584;SDS011;7180;52.742;11.420;2024-03-06T10:36:57;12.93;;;11.73;;
8584;SDS011;7180;52.742;11.420;2024-03-06T10:39:23;12.50;;;11.50;;
8584;SDS011;7180;52.742;11.420;2024-03-06T10:41:53;12.27;;;11.07;;
8584;SDS011;7180;52.742;11.420;2024-03-06T10:44:23;12.33;;;11.23;;
8584;SDS011;7180;52.742;11.420;2024-03-06T10:46:58;12.67;;;11.57;;
8584;SDS011;7180;52.742;11.420;2024-03-06T10:49:28;11.40;;;10.60;;
8584;SDS011;7180;52.742;11.420;2024-03-06T10:51:58;11.97;;;10.97;;
8584;SDS011;7180;52.742;11.420;2024-03-06T10:54:26;11.63;;;10.63;;
8584;SDS011;7180;52.742;11.420;2024-03-06T10:56:52;11.77;;;10.77;;
8584;SDS011;7180;52.742;11.420;2024-03-06T10:59:18;12.17;;;11.07;;
8584;SDS011;7180;52.742;11.420;2024-03-06T11:01:45;12.10;;;11.00;;
8584;SDS011;7180;52.742;11.420;2024-03-06T11:04:11;12.10;;;11.10;;
8584;SDS011;7180;52.742;11.420;2024-03-06T11:06:38;11.73;;;10.73;;
8584;SDS011;7180;52.742;11.420;2024-03-06T11:09:03;11.70;;;10.80;;
8584;SDS011;7180;52.742;11.420;2024-03-06T11:11:29;11.77;;;10.87;;
8584;SDS011;7180;52.742;11.420;2024-03-06T11:13:55;11.57;;;10.67;;
8584;SDS011;7180;52.742;11.420;2024-03-06T11:16:26;11.37;;;10.47;;
8584;SDS011;7180;52.742;11.420;2024-03-06T11:19:04;11.70;;;10.80;;
8584;SDS011;7180;52.742;11.420;2024-03-06T11:21:31;11.30;;;10.40;;
8584;SDS011;7180;52.742;11.420;2024-03-06T11:26:56;11.07;;;10.37;;
8584;SDS011;7180;52.742;11.420;2024-03-06T11:29:27;11.70;;;10.90;;
8584;SDS011;7180;52.742;11.420;2024-03-06T11:34:26;11.13;;;10.33;;
8584;SDS011;7180;52.742;11.420;2024-03-06T11:36:56;11.40;;;10.50;;
8584;SDS011;7180;52.742;11.420;2024-03-06T11:39:22;11.43;;;10.53;;
8584;SDS011;7180;52.742;11.420;2024-03-06T11:41:48;10.47;;;9.70;;
8584;SDS011;7180;52.742;11.420;2024-03-06T11:44:15;11.37;;;10.57;;
8584;SDS011;7180;52.742;11.420;2024-03-06T11:49:17;11.70;;;10.80;;
8584;SDS011;7180;52.742;11.420;2024-03-06T11:51:49;11.53;;;10.73;;
8584;SDS011;7180;52.742;11.420;2024-03-06T11:54:14;11.10;;;10.30;;
8584;SDS011;7180;52.742;11.420;2024-03-06T11:56:40;11.17;;;10.37;;
8584;SDS011;7180;52.742;11.420;2024-03-06T11:59:06;10.67;;;9.97;;
8584;SDS011;7180;52.742;11.420;2024-03-06T12:01:35;11.40;;;10.60;;
8584;SDS011;7180;52.742;11.420;2024-03-06T12:04:01;11.10;;;10.40;;
8584;SDS011;7180;52.742;11.420;2024-03-06T12:06:27;10.87;;;10.13;;
8584;SDS011;7180;52.742;11.420;2024-03-06T12:08:53;11.80;;;10.80;;
8584;SDS011;7180;52.742;11.420;2024-03-06T12:11:19;11.37;;;10.43;;
8584;SDS011;7180;52.742;11.420;2024-03-06T12:13:45;10.73;;;10.03;;
8584;SDS011;7180;52.742;11.420;2024-03-06T12:16:13;11.00;;;10.10;;
8584;SDS011;7180;52.742;11.420;2024-03-06T12:18:38;11.40;;;10.57;;
8584;SDS011;7180;52.742;11.420;2024-03-06T12:21:04;11.10;;;10.30;;
8584;SDS011;7180;52.742;11.420;2024-03-06T12:23:29;10.67;;;9.97;;
8584;SDS011;7180;52.742;11.420;2024-03-06T12:26:07;10.30;;;9.60;;
8584;SDS011;7180;52.742;11.420;2024-03-06T12:28:36;10.60;;;9.87;;
8584;SDS011;7180;52.742;11.420;2024-03-06T12:31:03;10.07;;;9.47;;
8584;SDS011;7180;52.742;11.420;2024-03-06T12:33:30;10.70;;;10.00;;
8584;SDS011;7180;52.742;11.420;2024-03-06T12:36:05;10.80;;;10.10;;
8584;SDS011;7180;52.742;11.420;2024-03-06T12:38:32;10.27;;;9.63;;
8584;SDS011;7180;52.742;11.420;2024-03-06T12:40:58;10.90;;;10.10;;
8584;SDS011;7180;52.742;11.420;2024-03-06T12:43:25;9.83;;;9.13;;
8584;SDS011;7180;52.742;11.420;2024-03-06T12:45:50;10.47;;;9.80;;
8584;SDS011;7180;52.742;11.420;2024-03-06T12:48:19;10.60;;;9.90;;
8584;SDS011;7180;52.742;11.420;2024-03-06T12:50:44;11.20;;;10.30;;
8584;SDS011;7180;52.742;11.420;2024-03-06T12:53:11;10.53;;;9.80;;
8584;SDS011;7180;52.742;11.420;2024-03-06T12:55:36;10.07;;;9.47;;
8584;SDS011;7180;52.742;11.420;2024-03-06T12:58:02;10.17;;;9.47;;
8584;SDS011;7180;52.742;11.420;2024-03-06T13:00:27;10.90;;;10.20;;
8584;SDS011;7180;52.742;11.420;2024-03-06T13:02:53;11.03;;;10.23;;
8584;SDS011;7180;52.742;11.420;2024-03-06T13:05:18;11.53;;;10.77;;
8584;SDS011;7180;52.742;11.420;2024-03-06T13:07:44;10.87;;;10.17;;
8584;SDS011;7180;52.742;11.420;2024-03-06T13:10:10;10.20;;;9.50;;
8584;SDS011;7180;52.742;11.420;2024-03-06T13:12:37;10.27;;;9.57;;
8584;SDS011;7180;52.742;11.420;2024-03-06T13:15:03;9.57;;;8.87;;
8584;SDS011;7180;52.742;11.420;2024-03-06T13:17:29;10.27;;;9.57;;
8584;SDS011;7180;52.742;11.420;2024-03-06T13:19:55;9.40;;;8.80;;
8584;SDS011;7180;52.742;11.420;2024-03-06T13:22:21;9.73;;;9.10;;
8584;SDS011;7180;52.742;11.420;2024-03-06T13:24:47;10.50;;;9.70;;
8584;SDS011;7180;52.742;11.420;2024-03-06T13:27:12;9.67;;;9.07;;
8584;SDS011;7180;52.742;11.420;2024-03-06T13:29:37;9.40;;;8.80;;
8584;SDS011;7180;52.742;11.420;2024-03-06T13:32:04;8.80;;;8.30;;
8584;SDS011;7180;52.742;11.420;2024-03-06T13:34:30;10.10;;;9.40;;
8584;SDS011;7180;52.742;11.420;2024-03-06T13:36:56;9.73;;;9.03;;
8584;SDS011;7180;52.742;11.420;2024-03-06T13:39:21;10.50;;;9.83;;
8584;SDS011;7180;52.742;11.420;2024-03-06T13:41:46;10.50;;;9.80;;
8584;SDS011;7180;52.742;11.420;2024-03-06T13:44:12;10.33;;;9.73;;
8584;SDS011;7180;52.742;11.420;2024-03-06T13:46:37;10.30;;;9.70;;
8584;SDS011;7180;52.742;11.420;2024-03-06T13:49:02;11.07;;;10.27;;
8584;SDS011;7180;52.742;11.420;2024-03-06T13:51:27;10.20;;;9.50;;
8584;SDS011;7180;52.742;11.420;2024-03-06T13:53:53;10.57;;;9.87;;
8584;SDS011;7180;52.742;11.420;2024-03-06T13:56:18;10.90;;;10.17;;
8584;SDS011;7180;52.742;11.420;2024-03-06T13:58:43;10.40;;;9.70;;
8584;SDS011;7180;52.742;11.420;2024-03-06T14:01:08;10.73;;;10.03;;
8584;SDS011;7180;52.742;11.420;2024-03-06T14:03:34;10.30;;;9.67;;
8584;SDS011;7180;52.742;11.420;2024-03-06T14:06:02;10.30;;;9.60;;
8584;SDS011;7180;52.742;11.420;2024-03-06T14:08:28;10.53;;;9.77;;
8584;SDS011;7180;52.742;11.420;2024-03-06T14:10:53;10.03;;;9.43;;
8584;SDS011;7180;52.742;11.420;2024-03-06T14:13:18;10.07;;;9.37;;
8584;SDS011;7180;52.742;11.420;2024-03-06T14:15:43;10.27;;;9.63;;
8584;SDS011;7180;52.742;11.420;2024-03-06T14:18:09;10.17;;;9.57;;
8584;SDS011;7180;52.742;11.420;2024-03-06T14:20:34;9.47;;;8.90;;
8584;SDS011;7180;52.742;11.420;2024-03-06T14:23:00;10.07;;;9.37;;
8584;SDS011;7180;52.742;11.420;2024-03-06T14:25:25;9.47;;;8.87;;
8584;SDS011;7180;52.742;11.420;2024-03-06T14:27:50;9.80;;;9.10;;
8584;SDS011;7180;52.742;11.420;2024-03-06T14:30:16;10.17;;;9.53;;
8584;SDS011;7180;52.742;11.420;2024-03-06T14:32:43;10.40;;;9.70;;
8584;SDS011;7180;52.742;11.420;2024-03-06T14:35:08;10.50;;;9.80;;
8584;SDS011;7180;52.742;11.420;2024-03-06T14:37:34;10.23;;;9.53;;
8584;SDS011;7180;52.742;11.420;2024-03-06T14:39:59;10.77;;;9.90;;
8584;SDS011;7180;52.742;11.420;2024-03-06T14:42:24;10.40;;;9.60;;
8584;SDS011;7180;52.742;11.420;2024-03-06T14:44:50;10.37;;;9.67;;
8584;SDS011;7180;52.742;11.420;2024-03-06T14:47:15;10.80;;;10.20;;
8584;SDS011;7180;52.742;11.420;2024-03-06T14:49:42;10.80;;;10.10;;
8584;SDS011;7180;52.742;11.420;2024-03-06T14:52:09;10.63;;;9.83;;